Time;durP1;ratioP1;P1;durP2;ratioP2;P2;SDS_P1;SDS_P2;PMS_P1;PMS_P2;Temp;Humidity;BMP_temperature;BMP_pressure;BME280_temperature;BME280_humidity;BME280_pressure;Samples;Min_cycle;Max_cycle;Signal;HPM_P1;HPM_P2
2021/01/27 00:00:29;;;;;;;45.97;29.37;;;51.30;2099.20;;;;;;4977977;28;20037;-86
2021/01/27 00:02:55;;;;;;;47.70;31.23;;;51.40;2073.60;;;;;;4977539;28;20037;-87
2021/01/27 00:05:31;;;;;;;38.97;25.23;;;51.40;2099.20;;;;;;4978096;28;20476;-88
2021/01/27 00:07:58;;;;;;;36.17;24.17;;;51.40;2073.60;;;;;;4978235;28;20026;-88
2021/01/27 00:10:24;;;;;;;38.33;24.87;;;51.30;2073.60;;;;;;4978196;28;20022;-88
2021/01/27 00:12:50;;;;;;;31.27;20.53;;;51.30;2099.20;;;;;;4978211;28;20022;-90
2021/01/27 00:15:24;;;;;;;34.67;20.90;;;51.30;2048.00;;;;;;4978233;28;20026;-87
2021/01/27 00:17:50;;;;;;;34.40;23.07;;;51.30;2048.00;;;;;;4977858;28;20038;-88
2021/01/27 00:20:18;;;;;;;37.23;20.23;;;51.30;2073.60;;;;;;4977939;28;20026;-87
2021/01/27 00:22:44;;;;;;;39.77;24.90;;;51.40;2073.60;;;;;;4977952;28;20030;-87
2021/01/27 00:25:12;;;;;;;37.13;22.00;;;51.40;2048.00;;;;;;4978045;28;20034;-90
2021/01/27 00:27:37;;;;;;;40.17;23.20;;;51.40;2073.60;;;;;;4978006;28;20038;-87
2021/01/27 00:30:12;;;;;;;40.80;23.77;;;51.50;2073.60;;;;;;4978093;28;20037;-89
2021/01/27 00:32:38;;;;;;;48.00;27.17;;;51.50;2073.60;;;;;;4977849;28;20031;-87
2021/01/27 00:35:06;;;;;;;44.23;26.23;;;51.40;2048.00;;;;;;4994914;28;20054;-88
2021/01/27 00:37:32;;;;;;;41.20;25.03;;;51.60;2073.60;;;;;;4977899;28;20042;-90
2021/01/27 00:39:57;;;;;;;44.67;27.83;;;51.70;2073.60;;;;;;4977570;28;20045;-88
2021/01/27 00:42:23;;;;;;;40.83;27.30;;;51.70;2099.20;;;;;;4977827;28;20477;-88
2021/01/27 00:44:49;;;;;;;49.63;26.40;;;51.80;2124.80;;;;;;4977914;28;20472;-88
2021/01/27 00:47:14;;;;;;;56.00;32.70;;;51.80;2150.40;;;;;;4977580;28;20038;-92
2021/01/27 00:49:40;;;;;;;63.53;34.77;;;51.80;2099.20;;;;;;4977741;28;20469;-91
2021/01/27 00:52:06;;;;;;;61.87;39.60;;;51.80;2099.20;;;;;;4977943;28;20113;-88
2021/01/27 00:54:31;;;;;;;85.17;47.40;;;51.80;2124.80;;;;;;4977848;28;20440;-88
2021/01/27 00:56:57;;;;;;;93.77;51.70;;;51.80;2124.80;;;;;;4977706;28;20085;-89
2021/01/27 00:59:23;;;;;;;90.27;52.00;;;51.80;2150.40;;;;;;4978011;28;20030;-87
2021/01/27 01:01:49;;;;;;;80.80;43.30;;;51.70;2099.20;;;;;;4977228;28;20472;-89
2021/01/27 01:04:14;;;;;;;72.93;41.00;;;51.70;2099.20;;;;;;4977652;28;20026;-87
2021/01/27 01:06:40;;;;;;;72.47;39.47;;;51.70;2124.80;;;;;;4977740;28;20137;-90
2021/01/27 01:09:05;;;;;;;82.57;46.30;;;51.70;2124.80;;;;;;4977723;28;20067;-90
2021/01/27 01:11:31;;;;;;;76.37;43.10;;;51.70;2124.80;;;;;;4976745;28;20038;-89
2021/01/27 01:13:57;;;;;;;50.33;27.53;;;51.80;2099.20;;;;;;4977882;28;20034;-88
2021/01/27 01:16:23;;;;;;;54.03;29.77;;;51.50;2099.20;;;;;;4977578;28;20069;-87
2021/01/27 01:18:49;;;;;;;50.97;30.50;;;51.40;2099.20;;;;;;4977439;28;20140;-87
2021/01/27 01:21:14;;;;;;;51.07;30.10;;;51.50;2124.80;;;;;;4977447;28;20538;-90
2021/01/27 01:23:41;;;;;;;48.03;30.60;;;51.50;2124.80;;;;;;4977220;28;20061;-92
2021/01/27 01:26:08;;;;;;;60.97;37.00;;;51.50;2150.40;;;;;;4977532;28;20037;-91
2021/01/27 01:28:34;;;;;;;54.53;33.57;;;51.30;2124.80;;;;;;4977404;28;20027;-92
2021/01/27 01:31:00;;;;;;;46.30;27.60;;;51.50;2124.80;;;;;;4980305;28;20081;-86
2021/01/27 01:33:28;;;;;;;44.93;28.10;;;51.50;2150.40;;;;;;4981127;28;20038;-87
2021/01/27 01:35:55;;;;;;;44.40;25.00;;;51.50;2150.40;;;;;;4980893;28;20125;-92
2021/01/27 01:38:21;;;;;;;40.43;23.53;;;51.50;2150.40;;;;;;4980726;28;20105;-90
2021/01/27 01:40:56;;;;;;;36.57;21.67;;;51.60;2176.00;;;;;;4980869;28;20035;-88
2021/01/27 01:43:27;;;;;;;44.40;25.97;;;51.60;2150.40;;;;;;4980931;28;20034;-86
2021/01/27 03:48:45;;;;;;;36.27;23.00;;;0.90;2201.60;;;;;;5052870;28;20726;-83
2021/01/27 03:51:12;;;;;;;46.73;27.20;;;51.40;2227.20;;;;;;5036753;28;20029;-84
2021/01/27 03:53:39;;;;;;;39.93;25.30;;;51.30;2227.20;;;;;;5033661;28;20033;-85
2021/01/27 03:56:32;;;;;;;42.47;27.70;;;51.30;2227.20;;;;;;5032926;28;20124;-85
2021/01/27 03:58:58;;;;;;;47.65;28.70;;;51.40;2227.20;;;;;;5032805;28;20065;-85
2021/01/27 04:01:23;;;;;;;39.20;25.43;;;51.40;2227.20;;;;;;5032905;28;20074;-84
2021/01/27 04:03:52;;;;;;;37.10;24.40;;;51.40;2227.20;;;;;;5032609;28;20044;-85
2021/01/27 04:06:17;;;;;;;45.60;25.57;;;51.30;2227.20;;;;;;5032789;28;20052;-88
2021/01/27 04:08:43;;;;;;;43.67;26.73;;;51.20;2227.20;;;;;;5032479;28;20033;-86
2021/01/27 04:11:10;;;;;;;44.77;27.60;;;51.20;2227.20;;;;;;5032261;28;20418;-84
2021/01/27 04:13:36;;;;;;;46.00;27.83;;;51.30;2227.20;;;;;;5032519;28;20040;-85
2021/01/27 04:16:02;;;;;;;54.77;32.77;;;51.30;2227.20;;;;;;5032212;28;20033;-88
2021/01/27 04:18:28;;;;;;;47.83;29.40;;;51.20;2227.20;;;;;;5032380;28;20056;-84
2021/01/27 04:20:54;;;;;;;40.60;25.10;;;51.30;2227.20;;;;;;5049855;28;20502;-85
2021/01/27 04:23:21;;;;;;;38.77;23.53;;;51.30;2227.20;;;;;;5032483;28;20033;-86
2021/01/27 04:25:47;;;;;;;37.87;23.23;;;51.30;2227.20;;;;;;5049780;28;20021;-85
2021/01/27 04:28:14;;;;;;;33.13;20.93;;;51.30;2227.20;;;;;;5032400;28;20096;-87
2021/01/27 04:30:39;;;;;;;39.50;22.90;;;51.40;2227.20;;;;;;5032059;28;20022;-85
2021/01/27 04:33:08;;;;;;;47.43;27.20;;;51.50;2227.20;;;;;;5032225;28;20021;-85
2021/01/27 04:35:35;;;;;;;40.47;26.57;;;51.50;2227.20;;;;;;5032134;28;20033;-85
2021/01/27 04:38:02;;;;;;;38.03;23.93;;;51.50;2227.20;;;;;;5032037;28;20037;-85
2021/01/27 04:40:32;;;;;;;38.73;24.33;;;51.50;2227.20;;;;;;5031882;28;20032;-85
2021/01/27 04:42:58;;;;;;;46.70;26.50;;;51.50;2227.20;;;;;;5032047;28;20033;-85
2021/01/27 04:45:24;;;;;;;50.47;28.80;;;51.50;2227.20;;;;;;5034483;28;20030;-85
2021/01/27 04:48:11;;;;;;;46.50;29.40;;;51.50;2227.20;;;;;;5029242;28;20050;-85
2021/01/27 04:50:46;;;;;;;47.37;30.10;;;51.60;2227.20;;;;;;5019831;28;20029;-85
2021/01/27 04:53:41;;;;;;;56.33;30.47;;;51.50;2227.20;;;;;;5018569;28;20107;-88
2021/01/27 04:56:12;;;;;;;45.63;27.90;;;51.60;2227.20;;;;;;5050494;28;20030;-90
2021/01/27 04:58:56;;;;;;;39.80;24.10;;;51.60;2227.20;;;;;;5018119;28;20087;-84
2021/01/27 05:01:33;;;;;;;40.63;23.70;;;51.40;2227.20;;;;;;5019624;28;20025;-85
2021/01/27 05:04:17;;;;;;;41.83;22.03;;;51.30;2227.20;;;;;;5018459;28;20029;-84
2021/01/27 05:06:47;;;;;;;33.17;22.87;;;51.30;2227.20;;;;;;5018244;28;20025;-87
2021/01/27 05:09:33;;;;;;;37.90;23.50;;;51.30;2227.20;;;;;;5018273;28;20405;-85
2021/01/27 05:12:02;;;;;;;33.07;23.13;;;51.30;2227.20;;;;;;5018491;28;20044;-85
2021/01/27 05:14:29;;;;;;;45.37;27.57;;;51.30;2227.20;;;;;;5018118;28;20025;-85
2021/01/27 05:16:58;;;;;;;41.10;26.67;;;51.30;2227.20;;;;;;5018371;28;20045;-85
2021/01/27 05:19:24;;;;;;;35.77;22.70;;;51.30;2227.20;;;;;;5035667;28;20048;-85
2021/01/27 05:21:53;;;;;;;41.13;24.70;;;51.30;2227.20;;;;;;5018243;28;20553;-85
2021/01/27 05:24:19;;;;;;;42.60;24.93;;;51.40;2227.20;;;;;;5017988;28;20048;-84
2021/01/27 05:26:53;;;;;;;64.73;34.97;;;51.20;2227.20;;;;;;5018326;28;20067;-85
2021/01/27 05:29:25;;;;;;;46.87;27.70;;;51.20;2227.20;;;;;;5019381;28;20032;-85
2021/01/27 05:32:14;;;;;;;41.57;24.67;;;51.20;2227.20;;;;;;5020273;28;20475;-84
2021/01/27 05:34:42;;;;;;;49.40;26.13;;;51.20;2227.20;;;;;;5017985;28;20083;-84
2021/01/27 05:37:44;;;;;;;72.93;37.63;;;51.20;2227.20;;;;;;5017967;28;20490;-84
2021/01/27 05:40:14;;;;;;;47.67;27.17;;;51.20;2227.20;;;;;;5046997;28;20060;-84
2021/01/27 05:42:41;;;;;;;43.00;24.10;;;26.40;2201.60;;;;;;5017700;28;20396;-84
2021/01/27 05:45:39;;;;;;;52.90;29.27;;;26.50;2201.60;;;;;;5017763;28;20104;-84
2021/01/27 05:48:26;;;;;;;35.77;23.00;;;51.20;2227.20;;;;;;5017633;28;20080;-84
2021/01/27 05:51:02;;;;;;;37.67;25.00;;;26.50;2201.60;;;;;;5018342;28;20483;-87
2021/01/27 05:53:31;;;;;;;93.43;54.03;;;26.50;2201.60;;;;;;5035265;28;20028;-88
2021/01/27 05:56:05;;;;;;;45.50;25.07;;;51.20;2227.20;;;;;;5017136;28;20042;-85
2021/01/27 05:58:37;;;;;;;41.00;25.00;;;51.20;2227.20;;;;;;5017560;28;20128;-85
2021/01/27 06:01:27;;;;;;;40.30;25.47;;;51.20;2227.20;;;;;;5016732;28;20033;-85
2021/01/27 06:03:58;;;;;;;68.23;43.83;;;51.20;2227.20;;;;;;5017417;28;20036;-85
2021/01/27 06:06:26;;;;;;;92.77;53.03;;;51.30;2227.20;;;;;;5016659;28;20042;-84
2021/01/27 06:08:55;;;;;;;68.87;42.03;;;51.30;2227.20;;;;;;5016955;28;20532;-85
2021/01/27 06:11:21;;;;;;;61.33;37.67;;;51.30;2227.20;;;;;;5017164;28;20030;-86
2021/01/27 06:13:49;;;;;;;47.90;29.93;;;51.30;2227.20;;;;;;5017748;28;20483;-84
2021/01/27 06:16:30;;;;;;;49.23;31.83;;;51.20;2227.20;;;;;;5016757;28;20443;-84
2021/01/27 06:19:10;;;;;;;50.63;29.77;;;51.30;2227.20;;;;;;5012581;28;20045;-84
2021/01/27 06:21:54;;;;;;;61.80;35.73;;;51.30;2227.20;;;;;;5017025;28;20052;-85
2021/01/27 06:24:51;;;;;;;56.80;35.93;;;26.50;2201.60;;;;;;5005415;28;20006;-84
2021/01/27 06:27:35;;;;;;;61.90;39.00;;;26.50;2201.60;;;;;;5015343;28;20053;-85
2021/01/27 06:30:20;;;;;;;58.80;35.63;;;26.40;2201.60;;;;;;5024365;28;20025;-86
2021/01/27 06:32:57;;;;;;;57.10;32.63;;;26.30;2201.60;;;;;;5016490;28;20036;-89
2021/01/27 06:35:38;;;;;;;59.10;34.43;;;26.40;2201.60;;;;;;5017342;28;20065;-85
2021/01/27 06:38:10;;;;;;;61.80;39.70;;;26.40;2201.60;;;;;;5016723;28;20108;-88
2021/01/27 06:40:57;;;;;;;61.70;34.10;;;26.30;2201.60;;;;;;5016375;28;20073;-85
2021/01/27 06:43:29;;;;;;;54.57;37.60;;;26.30;2201.60;;;;;;5016152;28;20259;-85
2021/01/27 06:46:01;;;;;;;41.03;24.30;;;26.40;2201.60;;;;;;5016315;28;20116;-90
2021/01/27 06:49:00;;;;;;;49.63;32.23;;;26.40;2201.60;;;;;;5014417;28;20054;-86
2021/01/27 06:51:41;;;;;;;85.27;59.10;;;26.50;2201.60;;;;;;5016896;28;20320;-88
2021/01/27 06:54:35;;;;;;;50.13;29.50;;;26.40;2201.60;;;;;;5017649;28;20032;-91
2021/01/27 06:57:07;;;;;;;64.60;41.03;;;26.40;2201.60;;;;;;5003707;28;20072;-86
2021/01/27 07:00:00;;;;;;;73.77;46.17;;;51.40;2227.20;;;;;;4997342;28;20049;-86
2021/01/27 07:02:44;;;;;;;61.03;37.10;;;26.50;2201.60;;;;;;4999324;28;20034;-86
2021/01/27 07:05:35;;;;;;;55.77;34.50;;;26.40;2201.60;;;;;;4999947;28;20046;-87
2021/01/27 07:08:09;;;;;;;40.67;26.10;;;26.40;2201.60;;;;;;5007184;28;20036;-87
2021/01/27 07:10:47;;;;;;;54.17;31.97;;;26.40;2201.60;;;;;;5009704;28;20120;-88
2021/01/27 07:13:54;;;;;;;40.47;26.60;;;26.50;2201.60;;;;;;5009216;28;20033;-87
2021/01/27 07:17:07;;;;;;;49.17;28.73;;;26.40;2201.60;;;;;;5034209;28;20041;-85
2021/01/27 07:19:51;;;;;;;50.50;30.13;;;51.20;2227.20;;;;;;4963286;28;20601;-86
2021/01/27 07:22:24;;;;;;;53.97;35.93;;;51.20;2227.20;;;;;;4989359;28;20027;-86
2021/01/27 07:25:04;;;;;;;72.88;35.83;;;51.30;2227.20;;;;;;4988878;28;20038;-86
2021/01/27 07:27:33;;;;;;;38.73;24.60;;;51.40;2227.20;;;;;;4962430;28;20027;-90
2021/01/27 07:30:21;;;;;;;34.27;24.10;;;51.40;2227.20;;;;;;4976610;28;20093;-85
2021/01/27 07:33:02;;;;;;;54.03;36.47;;;51.40;2227.20;;;;;;4976761;28;20035;-89
2021/01/27 07:35:34;;;;;;;36.47;25.63;;;51.50;2227.20;;;;;;4977379;28;20034;-86
2021/01/27 07:38:03;;;;;;;30.53;20.53;;;51.50;2227.20;;;;;;4976447;28;20038;-86
2021/01/27 07:40:55;;;;;;;25.20;18.00;;;51.60;2227.20;;;;;;4976630;28;20866;-85
2021/01/27 07:43:30;;;;;;;33.90;21.23;;;51.70;2227.20;;;;;;4976845;28;20491;-85
2021/01/27 07:46:00;;;;;;;28.33;18.80;;;51.70;2227.20;;;;;;4976267;28;20080;-89
2021/01/27 07:48:47;;;;;;;51.10;28.03;;;51.70;2227.20;;;;;;4976838;28;20053;-86
2021/01/27 07:51:20;;;;;;;40.00;23.43;;;51.80;2227.20;;;;;;4993709;28;20165;-87
2021/01/27 07:54:07;;;;;;;36.00;22.67;;;51.80;2227.20;;;;;;5000800;28;20041;-88
2021/01/27 07:56:59;;;;;;;48.47;28.13;;;51.90;2227.20;;;;;;5017444;28;20483;-87
2021/01/27 07:59:32;;;;;;;31.93;21.27;;;52.00;2227.20;;;;;;5023417;28;20026;-92
2021/01/27 08:02:05;;;;;;;27.90;17.40;;;51.90;2227.20;;;;;;5026077;28;20087;-91
2021/01/27 08:04:44;;;;;;;36.50;24.80;;;51.80;2227.20;;;;;;5017317;28;20505;-88
2021/01/27 08:07:22;;;;;;;29.27;14.97;;;51.80;2227.20;;;;;;5016339;28;20025;-88
2021/01/27 08:09:49;;;;;;;35.67;22.87;;;51.80;2227.20;;;;;;5015142;28;20037;-87
2021/01/27 08:12:31;;;;;;;69.60;39.43;;;51.80;2227.20;;;;;;5001853;28;20030;-89
2021/01/27 08:15:25;;;;;;;42.47;24.20;;;51.70;2227.20;;;;;;4996270;28;20029;-88
2021/01/27 08:17:59;;;;;;;41.77;24.60;;;51.60;2227.20;;;;;;4953696;28;20154;-88
2021/01/27 08:20:33;;;;;;;46.97;31.53;;;51.60;2227.20;;;;;;4937722;29;20036;-90
2021/01/27 08:23:07;;;;;;;65.87;38.87;;;51.60;2227.20;;;;;;4938072;29;20046;-86
2021/01/27 08:25:51;;;;;;;41.03;25.43;;;51.70;2227.20;;;;;;4941024;29;20408;-86
2021/01/27 08:28:58;;;;;;;57.60;34.07;;;51.80;2227.20;;;;;;4940724;29;20038;-85
2021/01/27 08:31:24;;;;;;;50.57;29.53;;;51.80;2227.20;;;;;;4918792;29;20043;-87
2021/01/27 08:33:53;;;;;;;39.13;24.77;;;51.80;2227.20;;;;;;4919553;29;20032;-86
2021/01/27 08:36:33;;;;;;;53.67;36.03;;;51.80;2227.20;;;;;;4918747;29;20044;-90
2021/01/27 08:39:02;;;;;;;53.87;37.53;;;51.90;2227.20;;;;;;4902208;29;20036;-90
2021/01/27 08:41:45;;;;;;;58.30;35.50;;;51.90;2227.20;;;;;;4917495;29;20036;-89
2021/01/27 08:44:36;;;;;;;65.38;39.65;;;52.00;2227.20;;;;;;4897429;29;20068;-85
2021/01/27 08:47:25;;;;;;;34.97;23.63;;;52.10;2227.20;;;;;;4890531;29;20055;-87
2021/01/27 08:49:58;;;;;;;29.93;21.53;;;52.10;2227.20;;;;;;4917794;29;20047;-87
2021/01/27 08:52:42;;;;;;;31.17;23.00;;;52.00;2227.20;;;;;;4918496;29;20581;-87
2021/01/27 08:55:32;;;;;;;37.57;26.93;;;52.10;2227.20;;;;;;4931980;29;20043;-93
2021/01/27 08:58:16;;;;;;;24.37;15.77;;;52.10;2227.20;;;;;;4950666;28;20043;-87
2021/01/27 09:00:44;;;;;;;25.07;16.33;;;52.00;2227.20;;;;;;4956448;29;20046;-85
2021/01/27 09:03:42;;;;;;;31.97;20.77;;;52.00;2227.20;;;;;;4973314;28;20488;-87
2021/01/27 09:06:47;;;;;;;23.03;15.63;;;52.00;2227.20;;;;;;4990100;28;20153;-88
2021/01/27 09:09:39;;;;;;;17.67;13.00;;;51.90;2227.20;;;;;;4976953;28;20019;-86
2021/01/27 09:12:09;;;;;;;28.20;18.40;;;51.90;2227.20;;;;;;4978347;28;20023;-85
2021/01/27 09:14:36;;;;;;;18.67;13.60;;;51.90;2227.20;;;;;;4986779;28;20105;-85
2021/01/27 09:17:04;;;;;;;28.40;16.90;;;51.90;2227.20;;;;;;4992489;28;20046;-86
2021/01/27 09:19:32;;;;;;;24.40;15.97;;;52.00;2227.20;;;;;;4997359;28;20034;-86
2021/01/27 09:22:09;;;;;;;29.97;20.13;;;52.00;2227.20;;;;;;4996720;28;20053;-88
2021/01/27 09:24:47;;;;;;;26.97;17.80;;;52.00;2176.00;;;;;;4996001;28;20026;-92
2021/01/27 09:27:39;;;;;;;24.20;13.00;;;52.00;2201.60;;;;;;4995201;28;20031;-89
2021/01/27 09:30:08;;;;;;;25.00;16.07;;;52.10;2150.40;;;;;;4991215;28;20395;-88
2021/01/27 09:32:34;;;;;;;21.40;12.50;;;76.80;2176.00;;;;;;4996481;28;20034;-89
2021/01/27 09:35:20;;;;;;;19.13;13.53;;;52.10;2150.40;;;;;;4994947;28;20034;-89
2021/01/27 09:37:59;;;;;;;23.80;15.77;;;52.10;2176.00;;;;;;4994405;28;20034;-88
2021/01/27 09:40:28;;;;;;;59.00;34.40;;;52.10;2176.00;;;;;;5011719;28;20033;-89
2021/01/27 09:43:00;;;;;;;33.03;22.27;;;76.80;2176.00;;;;;;4975487;28;20031;-90
2021/01/27 09:45:29;;;;;;;40.03;22.37;;;52.10;2176.00;;;;;;4977033;28;20078;-88
2021/01/27 09:47:57;;;;;;;36.20;24.23;;;52.10;2150.40;;;;;;4987288;28;20133;-89
2021/01/27 09:50:23;;;;;;;27.70;18.10;;;52.00;2176.00;;;;;;5004836;28;20476;-90
2021/01/27 09:52:55;;;;;;;20.30;17.50;;;52.00;2176.00;;;;;;5004505;28;20105;-92
2021/01/27 09:55:22;;;;;;;28.13;17.65;;;51.80;2227.20;;;;;;4995531;28;20030;-89
2021/01/27 09:57:50;;;;;;;25.10;17.20;;;51.70;2227.20;;;;;;5000500;28;20021;-88
2021/01/27 10:00:34;;;;;;;20.00;13.07;;;51.50;2227.20;;;;;;5014972;28;20061;-88
2021/01/27 10:03:21;;;;;;;28.10;19.30;;;51.40;2227.20;;;;;;4996165;28;20033;-88
2021/01/27 10:05:47;;;;;;;22.30;15.17;;;51.40;2227.20;;;;;;4995230;28;20018;-87
2021/01/27 10:08:22;;;;;;;31.60;19.73;;;51.40;2227.20;;;;;;4999964;28;20071;-89
2021/01/27 10:11:25;;;;;;;33.30;20.73;;;51.40;2227.20;;;;;;5013031;28;20121;-87
2021/01/27 10:13:58;;;;;;;34.60;24.88;;;51.50;2227.20;;;;;;4918417;29;20043;-89
2021/01/27 10:16:25;;;;;;;37.43;24.00;;;51.50;2227.20;;;;;;4918286;29;20071;-92
2021/01/27 10:19:01;;;;;;;33.83;22.27;;;51.50;2227.20;;;;;;4924976;29;20042;-89
2021/01/27 10:21:27;;;;;;;39.20;23.30;;;51.60;2227.20;;;;;;4916029;29;20019;-88
2021/01/27 10:23:52;;;;;;;48.30;33.70;;;51.60;2227.20;;;;;;4916677;29;20648;-90
2021/01/27 10:26:40;;;;;;;33.13;21.80;;;51.60;2227.20;;;;;;4939025;29;20024;-90
2021/01/27 10:29:21;;;;;;;35.23;22.73;;;51.60;2227.20;;;;;;4900028;29;20054;-89
2021/01/27 10:31:55;;;;;;;42.17;26.87;;;51.60;2227.20;;;;;;4899876;29;20035;-89
2021/01/27 10:34:44;;;;;;;38.53;25.50;;;51.70;2227.20;;;;;;4899773;29;20032;-92
2021/01/27 10:37:46;;;;;;;29.70;19.10;;;51.80;2227.20;;;;;;4898507;29;20191;-92
2021/01/27 10:40:23;;;;;;;28.73;21.03;;;51.60;2227.20;;;;;;4843658;29;20041;-90
2021/01/27 10:42:49;;;;;;;23.93;17.63;;;51.60;2227.20;;;;;;4860557;29;20075;-89
2021/01/27 10:45:32;;;;;;;21.17;14.57;;;51.50;2227.20;;;;;;4879364;29;20078;-88
2021/01/27 10:48:04;;;;;;;18.30;13.53;;;51.40;2227.20;;;;;;4868751;29;20053;-87
2021/01/27 10:50:30;;;;;;;26.30;16.17;;;51.30;2227.20;;;;;;4959742;28;20059;-88
2021/01/27 10:52:57;;;;;;;23.43;15.23;;;51.30;2227.20;;;;;;4953634;28;20133;-87
2021/01/27 10:55:29;;;;;;;23.90;16.20;;;51.30;2227.20;;;;;;4938693;28;20038;-87
2021/01/27 10:58:02;;;;;;;22.55;15.05;;;51.30;2227.20;;;;;;4937721;29;20130;-87
2021/01/27 11:00:28;;;;;;;21.70;13.67;;;51.20;2227.20;;;;;;4939124;29;20027;-88
2021/01/27 11:02:54;;;;;;;23.43;15.67;;;26.50;2201.60;;;;;;4938595;28;20039;-90
2021/01/27 11:05:19;;;;;;;26.00;16.57;;;51.20;2227.20;;;;;;4938670;29;20027;-89
2021/01/27 11:07:45;;;;;;;24.73;16.23;;;26.50;2201.60;;;;;;4939453;29;20070;-88
2021/01/27 11:10:12;;;;;;;20.57;12.97;;;26.50;2201.60;;;;;;4941784;29;20331;-88
2021/01/27 11:12:37;;;;;;;26.27;18.33;;;51.20;2227.20;;;;;;4955562;28;20027;-85
2021/01/27 11:15:04;;;;;;;31.90;21.33;;;51.30;2227.20;;;;;;4967175;28;20088;-85
2021/01/27 11:17:29;;;;;;;33.70;20.73;;;51.40;2227.20;;;;;;5019705;28;20081;-81
2021/01/27 11:19:55;;;;;;;31.50;23.27;;;51.40;2227.20;;;;;;4993537;28;20027;-86
2021/01/27 11:22:21;;;;;;;32.63;22.00;;;51.50;2227.20;;;;;;4992740;28;20037;-84
2021/01/27 11:24:46;;;;;;;33.23;22.07;;;51.50;2227.20;;;;;;4992188;28;20216;-85
2021/01/27 11:27:12;;;;;;;35.37;23.53;;;51.50;2227.20;;;;;;5008406;28;20046;-84
2021/01/27 11:29:39;;;;;;;35.57;22.83;;;51.50;2227.20;;;;;;5008749;28;20037;-88
2021/01/27 11:32:08;;;;;;;21.90;15.97;;;51.50;2227.20;;;;;;5005149;28;20022;-82
2021/01/27 11:34:36;;;;;;;22.00;14.33;;;51.50;2227.20;;;;;;5006545;28;20031;-84
2021/01/27 11:37:02;;;;;;;23.17;16.43;;;51.60;2227.20;;;;;;4999634;28;20038;-83
2021/01/27 11:39:28;;;;;;;23.57;17.17;;;51.80;2227.20;;;;;;5008301;28;20057;-85
2021/01/27 11:41:53;;;;;;;21.23;14.50;;;51.90;2227.20;;;;;;5005851;28;20112;-85
2021/01/27 11:44:19;;;;;;;23.93;15.20;;;51.90;2227.20;;;;;;4992221;28;20026;-83
2021/01/27 11:46:46;;;;;;;24.43;16.63;;;51.90;2227.20;;;;;;4995227;28;20044;-87
2021/01/27 11:49:15;;;;;;;22.23;15.33;;;76.90;2227.20;;;;;;5008438;28;20037;-91
2021/01/27 11:51:40;;;;;;;25.27;17.63;;;76.90;2227.20;;;;;;5002746;28;20052;-89
2021/01/27 11:54:06;;;;;;;30.30;18.80;;;77.00;2227.20;;;;;;4995449;28;20018;-88
2021/01/27 11:56:32;;;;;;;34.07;21.10;;;77.00;2227.20;;;;;;5000565;28;20563;-88
2021/01/27 11:58:58;;;;;;;63.63;38.43;;;76.90;2227.20;;;;;;5016494;28;20033;-89
2021/01/27 12:01:30;;;;;;;32.23;21.30;;;76.90;2227.20;;;;;;5019093;28;20034;-88
2021/01/27 12:03:56;;;;;;;33.05;20.40;;;76.90;2227.20;;;;;;5015729;28;20040;-90
2021/01/27 12:06:24;;;;;;;33.43;21.40;;;76.90;2227.20;;;;;;5010504;28;20121;-86
2021/01/27 12:08:50;;;;;;;31.03;22.27;;;76.80;2227.20;;;;;;5003924;28;20029;-86
2021/01/27 12:11:16;;;;;;;33.87;21.03;;;76.80;2227.20;;;;;;5013855;28;20380;-85
2021/01/27 12:13:42;;;;;;;28.87;18.93;;;52.10;2227.20;;;;;;5017871;28;20032;-81
2021/01/27 12:16:08;;;;;;;33.83;22.40;;;52.10;2227.20;;;;;;5029262;28;20029;-90
2021/01/27 12:18:35;;;;;;;45.00;30.47;;;52.10;2227.20;;;;;;5028178;28;20040;-89
2021/01/27 12:21:01;;;;;;;30.17;22.00;;;52.10;2227.20;;;;;;5023363;28;20026;-91
2021/01/27 12:23:26;;;;;;;26.17;17.13;;;52.00;2227.20;;;;;;5008827;28;20025;-90
2021/01/27 12:26:04;;;;;;;17.80;11.67;;;52.00;2227.20;;;;;;5015608;28;20095;-92
2021/01/27 12:28:30;;;;;;;33.87;20.27;;;51.80;2227.20;;;;;;5020950;28;20032;-94
2021/01/27 12:30:56;;;;;;;32.37;20.77;;;51.60;2227.20;;;;;;5015884;28;20025;-87
2021/01/27 12:33:22;;;;;;;33.90;21.80;;;51.60;2227.20;;;;;;5016838;28;20029;-89
2021/01/27 12:35:48;;;;;;;25.47;16.70;;;51.60;2227.20;;;;;;5016298;28;20129;-87
2021/01/27 12:38:14;;;;;;;32.87;19.07;;;51.60;2227.20;;;;;;5012222;28;20041;-88
2021/01/27 12:40:40;;;;;;;31.80;21.80;;;51.70;2227.20;;;;;;5015071;28;20430;-88
2021/01/27 12:43:05;;;;;;;33.50;21.00;;;51.70;2227.20;;;;;;5018639;28;20041;-88
2021/01/27 12:45:31;;;;;;;42.93;25.60;;;51.60;2227.20;;;;;;5016567;28;20513;-89
2021/01/27 12:47:57;;;;;;;19.30;13.93;;;51.80;2227.20;;;;;;5017666;28;20053;-92
2021/01/27 12:50:24;;;;;;;28.13;16.70;;;76.90;2176.00;;;;;;5017677;28;20055;-91
2021/01/27 12:53:05;;;;;;;30.70;18.93;;;77.10;2150.40;;;;;;5018181;28;20044;-93
2021/01/27 12:55:32;;;;;;;43.33;25.93;;;77.20;2124.80;;;;;;5000673;28;20030;-92
2021/01/27 12:58:00;;;;;;;24.70;14.87;;;77.40;2099.20;;;;;;5017348;28;20513;-88
2021/01/27 13:00:37;;;;;;;31.40;21.17;;;77.30;2124.80;;;;;;5023535;28;20053;-95
2021/01/27 13:03:33;;;;;;;32.43;21.10;;;77.40;2048.00;;;;;;4980716;28;20037;-89
2021/01/27 13:06:02;;;;;;;33.87;20.73;;;77.20;2124.80;;;;;;4957182;28;20416;-89
2021/01/27 13:08:28;;;;;;;32.83;20.73;;;77.10;2073.60;;;;;;4958569;28;20038;-88
2021/01/27 13:10:53;;;;;;;23.70;15.33;;;77.00;2099.20;;;;;;4956758;28;20047;-88
2021/01/27 13:13:19;;;;;;;26.47;14.93;;;76.90;2048.00;;;;;;4958173;28;20034;-90
2021/01/27 13:15:45;;;;;;;36.17;23.73;;;76.90;2099.20;;;;;;4959721;28;20074;-85
2021/01/27 13:18:11;;;;;;;59.20;38.37;;;77.00;2099.20;;;;;;4959685;28;20043;-85
2021/01/27 13:20:37;;;;;;;71.33;40.97;;;76.90;2099.20;;;;;;4959191;28;20070;-85
2021/01/27 13:23:04;;;;;;;44.40;29.03;;;76.90;2124.80;;;;;;4959112;28;20038;-86
2021/01/27 13:25:30;;;;;;;68.20;43.30;;;76.90;2099.20;;;;;;4957152;28;20482;-91
2021/01/27 13:27:56;;;;;;;97.63;61.90;;;77.40;2150.40;;;;;;4957390;29;20122;-92
2021/01/27 13:30:38;;;;;;;59.00;37.30;;;76.80;2073.60;;;;;;5064742;23;20049;-92
2021/01/27 13:33:16;;;;;;;98.67;62.77;;;77.20;2073.60;;;;;;5055963;28;20025;-91
2021/01/27 13:35:45;;;;;;;40.30;25.33;;;77.10;2073.60;;;;;;5055657;28;20025;-86
2021/01/27 13:38:13;;;;;;;50.97;33.93;;;77.00;2073.60;;;;;;5055722;28;20115;-89
2021/01/27 13:40:39;;;;;;;42.67;25.53;;;76.90;2073.60;;;;;;5055202;28;20116;-86
2021/01/27 13:43:05;;;;;;;40.60;24.17;;;77.00;2073.60;;;;;;5056070;28;20064;-86
2021/01/27 13:45:32;;;;;;;54.10;35.37;;;76.80;2073.60;;;;;;5055573;28;20021;-89
2021/01/27 13:47:59;;;;;;;29.43;16.50;;;76.90;2124.80;;;;;;5075497;28;20033;-85
2021/01/27 13:50:25;;;;;;;37.30;21.57;;;76.90;2048.00;;;;;;5075403;28;20029;-86
2021/01/27 13:52:51;;;;;;;36.60;21.03;;;76.90;2048.00;;;;;;5074438;28;20095;-86
2021/01/27 13:55:18;;;;;;;36.67;20.67;;;76.90;2048.00;;;;;;5055565;28;20051;-86
2021/01/27 13:57:44;;;;;;;55.10;33.50;;;76.90;2022.40;;;;;;5055067;28;20037;-87
2021/01/27 14:00:12;;;;;;;40.37;25.63;;;77.00;2073.60;;;;;;5054381;28;20109;-86
2021/01/27 14:02:38;;;;;;;39.17;23.73;;;76.90;2048.00;;;;;;5054779;28;20025;-86
2021/01/27 14:05:04;;;;;;;34.33;24.20;;;76.80;2073.60;;;;;;5054887;28;20028;-86
2021/01/27 14:07:30;;;;;;;29.27;18.27;;;76.90;2048.00;;;;;;5054489;28;20033;-86
2021/01/27 14:09:56;;;;;;;29.23;20.37;;;76.80;2073.60;;;;;;5054485;28;20025;-87
2021/01/27 14:12:21;;;;;;;26.00;19.77;;;76.80;2073.60;;;;;;5055037;28;20071;-86
2021/01/27 14:14:47;;;;;;;31.80;20.47;;;52.10;2124.80;;;;;;5054199;28;20035;-86
2021/01/27 14:17:15;;;;;;;42.20;26.77;;;52.10;2176.00;;;;;;5054538;28;20032;-90
2021/01/27 14:19:41;;;;;;;32.00;21.43;;;52.10;2227.20;;;;;;5054336;28;20055;-86
2021/01/27 14:22:06;;;;;;;26.20;18.27;;;52.10;2227.20;;;;;;5053690;28;20405;-86
2021/01/27 14:24:32;;;;;;;25.60;16.73;;;51.90;2227.20;;;;;;5054371;28;20107;-90
2021/01/27 14:26:58;;;;;;;28.80;18.63;;;51.90;2227.20;;;;;;5055108;28;20048;-86
2021/01/27 14:29:24;;;;;;;32.03;19.77;;;51.80;2227.20;;;;;;5054298;28;20057;-86
2021/01/27 14:31:50;;;;;;;40.40;25.30;;;51.90;2227.20;;;;;;5054581;28;20463;-86
2021/01/27 14:34:15;;;;;;;40.20;24.30;;;51.90;2227.20;;;;;;5054248;28;20094;-87
2021/01/27 14:36:41;;;;;;;37.27;24.80;;;51.90;2227.20;;;;;;5053953;28;20123;-87